createdAt,value
2022-09-22T00:01:33.703Z,8.57
2022-09-22T00:04:06.215Z,8.50
2022-09-22T00:06:37.664Z,6.10
2022-09-22T00:09:06.596Z,7.50
2022-09-22T00:11:37.890Z,10.33
2022-09-22T00:14:12.972Z,6.90
2022-09-22T00:16:53.600Z,4.43
2022-09-22T00:19:27.306Z,4.40
2022-09-22T00:21:55.441Z,3.63
2022-09-22T00:24:24.163Z,5.17
2022-09-22T00:26:52.447Z,6.13
2022-09-22T00:29:19.838Z,11.47
2022-09-22T00:31:47.189Z,7.47
2022-09-22T00:34:17.218Z,7.00
2022-09-22T00:36:45.265Z,7.77
2022-09-22T00:39:13.363Z,8.60
2022-09-22T00:41:45.054Z,9.13
2022-09-22T00:44:28.096Z,11.23
2022-09-22T00:47:27.360Z,7.27
2022-09-22T00:50:05.473Z,4.60
2022-09-22T00:52:37.738Z,6.23
2022-09-22T00:55:11.878Z,7.13
2022-09-22T00:57:40.874Z,6.57
2022-09-22T01:00:10.480Z,6.03
2022-09-22T01:02:38.286Z,4.13
2022-09-22T01:05:06.078Z,5.80
2022-09-22T01:07:34.170Z,5.43
2022-09-22T01:10:01.469Z,6.07
2022-09-22T01:12:31.321Z,6.47
2022-09-22T01:15:38.736Z,5.40
2022-09-22T01:18:25.294Z,6.53
2022-09-22T01:21:11.314Z,6.37
2022-09-22T01:23:42.018Z,6.80
2022-09-22T01:26:39.906Z,8.20
2022-09-22T01:29:34.528Z,5.83
2022-09-22T01:32:10.769Z,8.43
2022-09-22T01:34:53.386Z,9.30
2022-09-22T01:37:43.550Z,7.03
2022-09-22T01:40:43.080Z,8.30
2022-09-22T01:43:36.513Z,6.93
2022-09-22T01:46:11.646Z,6.73
2022-09-22T01:48:43.821Z,9.07
2022-09-22T01:51:18.772Z,13.93
2022-09-22T01:53:52.900Z,15.03
2022-09-22T01:56:23.522Z,18.53
2022-09-22T01:58:55.898Z,15.77
2022-09-22T02:01:35.109Z,13.17
2022-09-22T02:04:16.091Z,10.87
2022-09-22T02:07:07.221Z,6.90
2022-09-22T02:09:36.193Z,10.50
2022-09-22T02:12:04.809Z,7.87
2022-09-22T02:14:32.476Z,9.47
2022-09-22T02:17:00.447Z,6.57
2022-09-22T02:19:43.234Z,6.13
2022-09-22T02:22:13.094Z,5.20
2022-09-22T02:24:43.583Z,6.50
2022-09-22T02:27:15.356Z,5.90
2022-09-22T02:29:50.918Z,7.63
2022-09-22T02:32:19.432Z,6.33
2022-09-22T02:34:47.582Z,6.27
2022-09-22T02:37:53.426Z,8.03
2022-09-22T02:40:36.152Z,10.60
2022-09-22T02:43:34.248Z,7.07
2022-09-22T02:46:16.909Z,5.23
2022-09-22T02:48:52.879Z,9.33
2022-09-22T02:51:20.378Z,4.67
2022-09-22T02:53:47.758Z,5.87
2022-09-22T02:56:15.317Z,6.13
2022-09-22T02:58:42.726Z,6.03
2022-09-22T03:01:10.450Z,10.33
2022-09-22T03:03:37.876Z,7.70
2022-09-22T03:06:05.669Z,9.00
2022-09-22T03:08:33.058Z,9.27
2022-09-22T03:11:00.426Z,9.30
2022-09-22T03:13:27.744Z,9.00
2022-09-22T03:15:55.375Z,16.60
2022-09-22T03:18:22.798Z,13.33
2022-09-22T03:20:50.279Z,14.53
2022-09-22T03:23:17.556Z,10.90
2022-09-22T03:25:44.902Z,10.20
2022-09-22T03:28:12.267Z,10.27
2022-09-22T03:30:40.771Z,8.53
2022-09-22T03:33:08.112Z,9.43
2022-09-22T03:35:36.078Z,9.30
2022-09-22T03:38:03.434Z,9.33
2022-09-22T03:40:31.116Z,11.20
2022-09-22T03:42:59.052Z,13.07
2022-09-22T03:45:26.361Z,14.67
2022-09-22T03:47:54.550Z,15.57
2022-09-22T03:50:23.288Z,13.07
2022-09-22T03:52:50.607Z,12.57
2022-09-22T03:55:18.003Z,16.00
2022-09-22T03:57:45.791Z,12.93
2022-09-22T04:00:14.443Z,16.30
2022-09-22T04:02:42.183Z,14.80
2022-09-22T04:05:10.195Z,16.60
2022-09-22T04:07:37.987Z,12.00
2022-09-22T04:10:05.599Z,13.17
2022-09-22T04:12:33.414Z,18.13
2022-09-22T04:15:00.738Z,22.50
2022-09-22T04:17:28.049Z,23.60
2022-09-22T04:19:55.681Z,22.67
2022-09-22T04:22:23.108Z,19.20
2022-09-22T04:24:50.442Z,22.83
2022-09-22T04:27:20.326Z,18.57
2022-09-22T04:29:48.041Z,20.80
2022-09-22T04:32:15.711Z,20.57
2022-09-22T04:34:43.484Z,19.80
2022-09-22T04:37:11.456Z,16.87
2022-09-22T04:39:38.911Z,17.80
2022-09-22T04:42:06.770Z,17.30
2022-09-22T04:44:35.380Z,15.33
2022-09-22T04:47:03.861Z,19.07
2022-09-22T04:49:31.512Z,15.20
2022-09-22T04:51:59.283Z,18.53
2022-09-22T04:54:26.652Z,16.30
2022-09-22T04:56:54.294Z,22.47
2022-09-22T04:59:21.762Z,15.50
2022-09-22T05:01:49.119Z,15.03
2022-09-22T05:04:16.977Z,18.30
2022-09-22T05:06:44.270Z,18.33
2022-09-22T05:09:11.701Z,19.10
2022-09-22T05:11:39.850Z,19.67
2022-09-22T05:14:07.092Z,17.37
2022-09-22T05:16:34.612Z,19.50
2022-09-22T05:19:04.795Z,18.80
2022-09-22T05:21:32.171Z,19.93
2022-09-22T05:23:59.824Z,19.17
2022-09-22T05:26:27.817Z,22.27
2022-09-22T05:28:55.441Z,19.47
2022-09-22T05:31:23.078Z,38.07
2022-09-22T05:33:50.977Z,31.87
2022-09-22T05:36:18.661Z,29.27
2022-09-22T05:38:45.982Z,29.57
2022-09-22T05:41:13.223Z,32.60
2022-09-22T05:43:40.544Z,35.17
2022-09-22T05:46:08.836Z,36.03
2022-09-22T05:48:36.115Z,38.77
2022-09-22T05:51:03.762Z,59.27
2022-09-22T05:53:31.147Z,41.63
2022-09-22T05:56:00.330Z,38.07
2022-09-22T05:58:27.767Z,39.03
2022-09-22T06:00:58.475Z,36.53
2022-09-22T06:03:26.131Z,38.40
2022-09-22T06:05:53.839Z,34.20
2022-09-22T06:08:21.138Z,33.13
2022-09-22T06:10:51.518Z,37.23
2022-09-22T06:13:18.847Z,38.20
2022-09-22T06:15:49.468Z,43.33
2022-09-22T06:18:24.957Z,32.30
2022-09-22T06:20:52.849Z,29.83
2022-09-22T06:23:20.337Z,30.70
2022-09-22T06:25:47.611Z,33.63
2022-09-22T06:28:15.932Z,35.27
2022-09-22T06:30:43.684Z,34.20
2022-09-22T06:33:11.800Z,35.07
2022-09-22T06:35:43.261Z,34.47
2022-09-22T06:38:14.128Z,35.73
2022-09-22T06:40:45.061Z,30.93
2022-09-22T06:43:24.577Z,35.43
2022-09-22T06:45:52.640Z,36.60
2022-09-22T06:48:24.548Z,40.90
2022-09-22T06:50:54.145Z,35.50
2022-09-22T06:53:25.046Z,33.10
2022-09-22T06:55:54.426Z,33.80
2022-09-22T06:58:22.686Z,30.57
2022-09-22T07:00:50.689Z,30.47
2022-09-22T07:03:23.124Z,31.47
2022-09-22T07:05:59.267Z,31.03
2022-09-22T07:08:27.559Z,27.47
2022-09-22T07:11:02.185Z,29.43
2022-09-22T07:13:31.435Z,31.53
2022-09-22T07:16:08.285Z,29.13
2022-09-22T07:18:36.414Z,28.00
2022-09-22T07:21:09.142Z,26.00
2022-09-22T07:23:37.074Z,27.27
2022-09-22T07:26:06.704Z,29.10
2022-09-22T07:28:35.912Z,28.30
2022-09-22T07:31:08.291Z,27.67
2022-09-22T07:33:40.825Z,30.17
2022-09-22T07:36:14.252Z,29.00
2022-09-22T07:38:43.413Z,30.20
2022-09-22T07:41:15.911Z,32.83
2022-09-22T07:43:43.569Z,23.57
2022-09-22T07:46:13.108Z,24.23
2022-09-22T07:48:49.931Z,26.80
2022-09-22T07:51:20.096Z,23.63
2022-09-22T07:53:49.767Z,26.87
2022-09-22T07:56:21.394Z,25.53
2022-09-22T07:58:54.432Z,26.27
2022-09-22T08:01:24.472Z,26.30
2022-09-22T08:03:52.582Z,26.23
2022-09-22T08:06:23.512Z,24.70
2022-09-22T08:08:55.934Z,24.47
2022-09-22T08:11:26.180Z,22.50
2022-09-22T08:14:00.211Z,24.40
2022-09-22T08:16:31.368Z,22.77
2022-09-22T08:19:00.925Z,27.10
2022-09-22T08:21:35.541Z,25.53
2022-09-22T08:24:02.998Z,22.33
2022-09-22T08:26:30.317Z,19.23
2022-09-22T08:28:58.636Z,20.77
2022-09-22T08:31:27.711Z,17.90
2022-09-22T08:33:55.879Z,18.87
2022-09-22T08:36:26.247Z,21.00
2022-09-22T08:38:58.964Z,18.00
2022-09-22T08:41:31.948Z,18.17
2022-09-22T08:44:03.516Z,17.17
2022-09-22T08:46:37.021Z,17.57
2022-09-22T08:49:46.191Z,22.40
2022-09-22T08:52:20.418Z,18.23
2022-09-22T08:54:47.791Z,15.77
2022-09-22T08:57:30.550Z,17.07
2022-09-22T09:00:21.646Z,14.27
2022-09-22T09:03:26.328Z,15.80
2022-09-22T09:06:24.742Z,13.23
2022-09-22T09:09:10.434Z,11.73
2022-09-22T09:11:52.270Z,15.07
2022-09-22T09:14:38.117Z,11.30
2022-09-22T09:17:15.303Z,11.00
2022-09-22T09:19:48.290Z,12.43
2022-09-22T09:22:25.876Z,11.23
2022-09-22T09:25:27.827Z,9.67
2022-09-22T09:28:03.424Z,9.57
2022-09-22T09:30:46.088Z,10.37
2022-09-22T09:33:23.111Z,9.33
2022-09-22T09:35:53.803Z,6.77
2022-09-22T09:38:52.437Z,9.23
2022-09-22T09:41:34.492Z,8.43
2022-09-22T09:44:03.427Z,6.70
2022-09-22T09:46:30.736Z,6.33
2022-09-22T09:49:07.324Z,4.67
2022-09-22T09:51:39.689Z,4.40
2022-09-22T09:54:14.429Z,4.80
2022-09-22T09:57:09.471Z,4.20
2022-09-22T09:59:57.589Z,4.73
2022-09-22T10:02:35.611Z,3.33
2022-09-22T10:05:19.682Z,4.13
2022-09-22T10:07:49.905Z,3.40
2022-09-22T10:10:41.463Z,3.92
2022-09-22T10:13:08.805Z,7.18
2022-09-22T10:15:41.432Z,2.38
2022-09-22T10:18:27.144Z,3.33
2022-09-22T10:21:15.086Z,3.15
2022-09-22T10:23:50.656Z,2.95
2022-09-22T10:26:21.159Z,2.53
2022-09-22T10:29:12.989Z,10.63
2022-09-22T10:31:42.220Z,2.10
2022-09-22T10:34:34.359Z,4.55
2022-09-22T10:37:04.182Z,2.40
2022-09-22T10:39:50.970Z,2.40
2022-09-22T10:42:41.170Z,3.92
2022-09-22T10:45:08.900Z,5.25
2022-09-22T10:47:52.759Z,2.47
2022-09-22T10:50:38.591Z,20.60
2022-09-22T10:53:11.013Z,6.57
2022-09-22T10:55:54.039Z,2.47
2022-09-22T10:58:59.920Z,15.50
2022-09-22T11:01:39.622Z,3.22
2022-09-22T11:04:14.163Z,1.60
2022-09-22T11:07:25.660Z,2.28
2022-09-22T11:10:22.293Z,1.75
2022-09-22T11:13:08.770Z,1.10
2022-09-22T11:15:54.558Z,1.88
2022-09-22T11:18:41.813Z,1.77
2022-09-22T11:21:15.773Z,1.40
2022-09-22T11:24:41.682Z,2.75
2022-09-22T11:27:20.387Z,3.13
2022-09-22T11:30:10.988Z,2.92
2022-09-22T11:32:45.395Z,2.70
2022-09-22T11:35:44.890Z,2.10
2022-09-22T11:38:13.817Z,3.65
2022-09-22T11:41:04.894Z,2.53
2022-09-22T11:43:42.271Z,1.98
2022-09-22T11:46:36.965Z,2.72
2022-09-22T11:49:13.150Z,1.80
2022-09-22T11:52:01.747Z,3.92
2022-09-22T11:54:34.856Z,2.33
2022-09-22T11:57:08.480Z,1.40
2022-09-22T11:59:45.550Z,1.83
2022-09-22T12:02:26.609Z,1.38
2022-09-22T12:05:27.435Z,1.00
2022-09-22T12:08:08.888Z,1.90
2022-09-22T12:10:40.251Z,2.35
2022-09-22T12:13:28.440Z,2.78
2022-09-22T12:16:09.489Z,1.38
2022-09-22T12:18:58.325Z,4.03
2022-09-22T12:21:51.123Z,1.17
2022-09-22T12:24:18.621Z,2.13
2022-09-22T12:26:48.667Z,1.00
2022-09-22T12:29:16.488Z,3.23
2022-09-22T12:31:48.661Z,3.93
2022-09-22T12:34:40.136Z,3.90
2022-09-22T12:37:12.364Z,3.43
2022-09-22T12:39:49.085Z,2.10
2022-09-22T12:42:31.598Z,1.03
2022-09-22T12:45:05.701Z,2.57
2022-09-22T12:47:47.192Z,1.73
2022-09-22T12:50:14.578Z,2.27
2022-09-22T12:52:41.753Z,2.70
2022-09-22T12:55:30.383Z,1.77
2022-09-22T12:58:01.512Z,2.30
2022-09-22T13:00:37.896Z,1.90
2022-09-22T13:03:27.004Z,0.70
2022-09-22T13:05:58.747Z,2.90
2022-09-22T13:08:45.908Z,1.00
2022-09-22T13:11:13.202Z,4.03
2022-09-22T13:13:43.382Z,2.80
2022-09-22T13:16:16.541Z,1.13
2022-09-22T13:19:02.650Z,0.77
2022-09-22T13:21:33.668Z,0.70
2022-09-22T13:24:04.197Z,0.70
2022-09-22T13:26:34.813Z,0.87
2022-09-22T13:29:18.403Z,1.47
2022-09-22T13:31:51.842Z,1.03
2022-09-22T13:34:34.666Z,1.07
2022-09-22T13:37:08.154Z,2.43
2022-09-22T13:39:42.256Z,1.60
2022-09-22T13:42:19.759Z,1.67
2022-09-22T13:44:54.076Z,0.90
2022-09-22T13:47:23.925Z,1.93
2022-09-22T13:49:56.231Z,2.93
2022-09-22T13:52:28.523Z,1.77
2022-09-22T13:55:08.477Z,0.80
2022-09-22T13:57:38.211Z,2.83
2022-09-22T14:00:08.742Z,3.63
2022-09-22T14:02:37.169Z,4.90
2022-09-22T14:05:16.341Z,2.40
2022-09-22T14:08:00.938Z,2.90
2022-09-22T14:10:33.101Z,3.63
2022-09-22T14:13:00.408Z,2.57
2022-09-22T14:15:40.606Z,7.00
2022-09-22T14:18:23.096Z,1.47
2022-09-22T14:20:51.411Z,0.90
2022-09-22T14:23:29.988Z,6.63
2022-09-22T14:26:00.802Z,4.37
2022-09-22T14:28:37.053Z,1.43
2022-09-22T14:31:21.076Z,3.47
2022-09-22T14:33:48.588Z,2.60
2022-09-22T14:36:22.285Z,2.90
2022-09-22T14:39:08.501Z,1.97
2022-09-22T14:41:38.326Z,3.23
2022-09-22T14:44:35.588Z,2.57
2022-09-22T14:47:19.090Z,5.97
2022-09-22T14:49:48.522Z,2.90
2022-09-22T14:52:27.787Z,2.50
2022-09-22T14:54:59.419Z,1.67
2022-09-22T14:57:28.101Z,2.77
2022-09-22T15:00:18.842Z,5.97
2022-09-22T15:02:53.378Z,10.60
2022-09-22T15:05:30.580Z,3.93
2022-09-22T15:07:58.708Z,1.43
2022-09-22T15:10:31.232Z,1.50
2022-09-22T15:13:27.336Z,3.10
2022-09-22T15:15:54.795Z,2.27
2022-09-22T15:18:22.436Z,4.57
2022-09-22T15:21:00.039Z,1.60
2022-09-22T15:23:40.251Z,2.07
2022-09-22T15:26:26.579Z,3.20
2022-09-22T15:28:56.547Z,1.83
2022-09-22T15:31:27.188Z,2.23
2022-09-22T15:34:00.348Z,1.53
2022-09-22T15:36:32.363Z,2.10
2022-09-22T15:39:03.656Z,2.07
2022-09-22T15:41:32.003Z,1.97
2022-09-22T15:43:59.677Z,1.30
2022-09-22T15:46:34.444Z,3.20
2022-09-22T15:49:13.057Z,3.43
2022-09-22T15:51:40.703Z,2.93
2022-09-22T15:54:16.641Z,1.67
2022-09-22T15:56:46.139Z,2.90
2022-09-22T15:59:18.753Z,2.20
2022-09-22T16:01:47.494Z,2.33
2022-09-22T16:04:15.194Z,3.30
2022-09-22T16:06:48.880Z,2.63
2022-09-22T16:09:17.918Z,1.53
2022-09-22T16:11:45.372Z,1.53
2022-09-22T16:14:14.019Z,2.33
2022-09-22T16:16:43.211Z,1.40
2022-09-22T16:19:11.896Z,3.27
2022-09-22T16:21:41.917Z,1.90
2022-09-22T16:24:11.949Z,1.37
2022-09-22T16:26:41.025Z,1.63
2022-09-22T16:29:09.009Z,0.90
2022-09-22T16:31:37.874Z,1.23
2022-09-22T16:34:06.997Z,2.60
2022-09-22T16:36:36.483Z,8.47
2022-09-22T16:39:05.775Z,2.60
2022-09-22T16:41:35.170Z,3.67
2022-09-22T16:44:03.279Z,4.53
2022-09-22T16:46:33.876Z,4.20
2022-09-22T16:49:12.995Z,13.00
2022-09-22T16:51:42.907Z,15.03
2022-09-22T16:54:15.120Z,14.50
2022-09-22T16:56:45.782Z,9.00
2022-09-22T16:59:16.664Z,29.80
2022-09-22T17:01:44.383Z,39.83
2022-09-22T17:04:13.933Z,122.63
2022-09-22T17:06:41.972Z,83.87
2022-09-22T17:09:11.030Z,83.47
2022-09-22T17:11:41.499Z,102.17
2022-09-22T17:14:12.688Z,151.40
2022-09-22T17:16:45.789Z,154.30
2022-09-22T17:19:24.931Z,126.93
2022-09-22T17:21:53.505Z,71.70
2022-09-22T17:24:21.158Z,36.80
2022-09-22T17:26:51.102Z,31.07
2022-09-22T17:29:24.044Z,27.20
2022-09-22T17:32:06.072Z,13.30
2022-09-22T17:34:34.929Z,9.80
2022-09-22T17:37:03.351Z,15.63
2022-09-22T17:39:32.005Z,18.20
2022-09-22T17:41:59.908Z,41.10
2022-09-22T17:44:29.363Z,21.17
2022-09-22T17:47:15.490Z,29.43
2022-09-22T17:50:01.196Z,31.07
2022-09-22T17:52:28.605Z,21.00
2022-09-22T17:55:15.318Z,38.30
2022-09-22T17:57:44.722Z,45.43
2022-09-22T18:00:14.748Z,25.43
2022-09-22T18:02:42.321Z,38.23
2022-09-22T18:05:15.259Z,25.40
2022-09-22T18:07:43.160Z,17.47
2022-09-22T18:10:13.502Z,14.67
2022-09-22T18:12:41.506Z,7.00
2022-09-22T18:15:13.109Z,6.43
2022-09-22T18:17:42.358Z,6.70
2022-09-22T18:20:15.963Z,3.57
2022-09-22T18:22:48.478Z,2.30
2022-09-22T18:25:19.844Z,5.93
2022-09-22T18:27:48.782Z,6.70
2022-09-22T18:30:19.573Z,19.80
2022-09-22T18:32:48.389Z,17.70
2022-09-22T18:35:15.956Z,9.17
2022-09-22T18:37:43.537Z,7.77
2022-09-22T18:40:12.758Z,4.93
2022-09-22T18:42:41.785Z,6.87
2022-09-22T18:45:11.287Z,7.47
2022-09-22T18:47:41.717Z,14.20
2022-09-22T18:50:10.102Z,9.43
2022-09-22T18:52:37.631Z,9.30
2022-09-22T18:55:05.937Z,12.77
2022-09-22T18:57:33.296Z,19.30
2022-09-22T19:00:01.908Z,27.73
2022-09-22T19:02:29.905Z,33.23
2022-09-22T19:04:57.518Z,45.00
2022-09-22T19:07:43.239Z,49.00
2022-09-22T19:10:13.028Z,25.00
2022-09-22T19:12:42.054Z,22.10
2022-09-22T19:15:15.851Z,32.03
2022-09-22T19:17:45.137Z,50.67
2022-09-22T19:20:18.312Z,44.47
2022-09-22T19:22:47.281Z,34.80
2022-09-22T19:25:15.205Z,31.13
2022-09-22T19:27:42.970Z,40.57
2022-09-22T19:30:11.737Z,121.27
2022-09-22T19:32:40.283Z,82.10
2022-09-22T19:35:08.638Z,88.70
2022-09-22T19:37:36.616Z,178.80
2022-09-22T19:40:05.885Z,263.53
2022-09-22T19:42:37.995Z,435.93
2022-09-22T19:45:07.656Z,374.70
2022-09-22T19:47:35.027Z,253.57
2022-09-22T19:50:02.540Z,213.50
2022-09-22T19:52:29.847Z,172.30
2022-09-22T19:54:57.456Z,168.37
2022-09-22T19:57:24.940Z,133.53
2022-09-22T19:59:52.223Z,117.33
2022-09-22T20:02:21.174Z,115.37
2022-09-22T20:04:49.042Z,106.87
2022-09-22T20:07:16.555Z,107.37
2022-09-22T20:09:43.893Z,99.13
2022-09-22T20:12:11.248Z,46.37
2022-09-22T20:14:38.571Z,22.63
2022-09-22T20:17:08.464Z,24.30
2022-09-22T20:19:40.499Z,10.37
2022-09-22T20:22:28.037Z,8.20
2022-09-22T20:25:00.810Z,9.83
2022-09-22T20:27:31.567Z,9.50
2022-09-22T20:29:59.646Z,10.93
2022-09-22T20:32:29.619Z,18.63
2022-09-22T20:34:57.313Z,19.73
2022-09-22T20:37:25.490Z,32.80
2022-09-22T20:39:52.919Z,32.20
2022-09-22T20:42:20.266Z,42.00
2022-09-22T20:44:49.740Z,67.37
2022-09-22T20:47:19.076Z,49.43
2022-09-22T20:49:50.820Z,64.53
2022-09-22T20:52:20.576Z,68.87
2022-09-22T20:54:49.072Z,59.13
2022-09-22T20:57:17.201Z,38.60
2022-09-22T20:59:46.175Z,18.77
2022-09-22T21:02:14.708Z,15.90
2022-09-22T21:04:42.428Z,17.47
2022-09-22T21:07:11.641Z,19.43
2022-09-22T21:09:57.404Z,20.33
2022-09-22T21:12:30.669Z,14.77
2022-09-22T21:14:59.033Z,13.17
2022-09-22T21:17:28.166Z,11.97
2022-09-22T21:19:59.133Z,15.33
2022-09-22T21:22:31.305Z,28.67
2022-09-22T21:24:58.671Z,24.30
2022-09-22T21:27:26.247Z,24.93
2022-09-22T21:29:53.747Z,29.17
2022-09-22T21:32:21.241Z,27.43
2022-09-22T21:34:48.658Z,29.63
2022-09-22T21:37:16.116Z,22.50
2022-09-22T21:39:43.528Z,26.07
2022-09-22T21:42:10.860Z,18.00
2022-09-22T21:44:38.146Z,16.43
2022-09-22T21:47:05.555Z,16.80
2022-09-22T21:49:33.376Z,16.43
2022-09-22T21:52:01.460Z,22.57
2022-09-22T21:54:28.781Z,16.43
2022-09-22T21:56:57.356Z,18.37
2022-09-22T21:59:24.606Z,16.03
2022-09-22T22:01:52.046Z,20.10
2022-09-22T22:04:19.618Z,23.63
2022-09-22T22:06:47.366Z,19.17
2022-09-22T22:09:22.290Z,29.40
2022-09-22T22:11:53.543Z,26.07
2022-09-22T22:14:23.037Z,24.77
2022-09-22T22:16:52.245Z,20.67
2022-09-22T22:19:21.631Z,19.60
2022-09-22T22:21:51.543Z,19.33
2022-09-22T22:24:24.637Z,21.53
2022-09-22T22:26:57.722Z,28.90
2022-09-22T22:29:27.216Z,23.10
2022-09-22T22:31:54.652Z,21.43
2022-09-22T22:34:25.950Z,20.33
2022-09-22T22:36:54.622Z,20.67
2022-09-22T22:39:22.163Z,22.20
2022-09-22T22:41:49.428Z,20.63
2022-09-22T22:44:18.213Z,19.53
2022-09-22T22:46:46.606Z,24.67
2022-09-22T22:49:17.275Z,18.70
2022-09-22T22:51:44.828Z,20.53
2022-09-22T22:54:13.623Z,19.40
2022-09-22T22:56:43.250Z,17.77
2022-09-22T22:59:12.585Z,19.23
2022-09-22T23:01:40.737Z,19.10
2022-09-22T23:04:11.037Z,16.53
2022-09-22T23:06:44.343Z,16.87
2022-09-22T23:09:14.910Z,15.67
2022-09-22T23:11:43.216Z,16.03
2022-09-22T23:14:13.101Z,18.13
2022-09-22T23:16:45.868Z,18.93
2022-09-22T23:19:16.134Z,22.27
2022-09-22T23:21:45.285Z,22.17
2022-09-22T23:24:19.959Z,18.17
2022-09-22T23:26:47.320Z,18.00
2022-09-22T23:29:15.335Z,16.33
2022-09-22T23:31:43.431Z,17.23
2022-09-22T23:34:10.720Z,18.23
2022-09-22T23:36:39.826Z,16.97
2022-09-22T23:39:07.278Z,20.50
2022-09-22T23:41:36.669Z,19.27
2022-09-22T23:44:07.252Z,15.00
2022-09-22T23:46:35.093Z,15.57
2022-09-22T23:49:02.644Z,18.13
2022-09-22T23:51:30.321Z,15.03
2022-09-22T23:53:58.418Z,13.50
2022-09-22T23:56:25.879Z,9.57
2022-09-22T23:58:53.991Z,10.57
